MMMX

Licenciado Benito Juarez International Airport

Mexico City, Mexico
TAF MMMX 172258Z 1800/1906 11005KT 6SM HZ SKC TX22/1821Z TN07/1812Z FM180300 00000KT P6SM SCT200 TEMPO 1812/1816 3SM HZ FM181800 23010KT P6SM BKN200 FM190200 13005KT P6SM SCT200
Issued Valid From Valid To
Nov-17 @ 22:58 UTC
(3 hours ago)
Nov-18 @ 00:00 UTC
(2 hours ago)
Nov-19 @ 06:00 UTC
(-1 days ago)
Nov-18 @ 00:00 to Nov-18 @ 03:00
TAF MMMX 172258Z 1800/1906 11005KT 6SM HZ SKC TX22/1821Z TN07/1812Z
Wind Visibility Clouds Conditions
110° at 5 knots 6 miles
  • Clear skies
  • Haze
From Nov-18 @ 03:00 to Nov-18 @ 18:00
FM180300 00000KT P6SM SCT200
Visibility Clouds
Greater than 6 miles
  • Scattered at 20,000' AGL
Temporary Nov-18 @ 12:00 to Nov-18 @ 16:00
TEMPO 1812/1816 3SM HZ
Visibility Conditions
3 miles
  • Haze
From Nov-18 @ 18:00 to Nov-19 @ 02:00
FM181800 23010KT P6SM BKN200
Wind Visibility Clouds
230° at 10 knots Greater than 6 miles
  • Broken at 20,000' AGL
From Nov-19 @ 02:00 to Nov-19 @ 06:00
FM190200 13005KT P6SM SCT200
Wind Visibility Clouds
130° at 5 knots Greater than 6 miles
  • Scattered at 20,000' AGL
TAF MMMX 172258Z 1800/1906 11005KT 6SM HZ SKC TX22/1821Z TN07/1812Z FM180300 00000KT P6SM SCT200 TEMPO 1812/1816 3SM HZ FM181800 23010KT P6SM BKN200 FM190200 13005KT P6SM SCT200
Issued Nov-17 @ 22:58 UTC
(3 hours ago)
Valid From Nov-18 @ 00:00 UTC
(2 hours ago)
Valid To Nov-19 @ 06:00 UTC
(-1 days ago)
Nov-18 @ 00:00 - Nov-18 @ 03:00
Wind Visibility
110° at 5 knots 6 miles
Clouds
  • Clear skies
Conditions
  • Haze
From Nov-18 @ 03:00 - Nov-18 @ 18:00
Clouds
  • Scattered at 20,000' AGL
Temporary Nov-18 @ 12:00 - Nov-18 @ 16:00
Conditions
  • Haze
From Nov-18 @ 18:00 - Nov-19 @ 02:00
Wind Visibility
230° at 10 knots Greater than 6 miles
Clouds
  • Broken at 20,000' AGL
From Nov-19 @ 02:00 - Nov-19 @ 06:00
Wind Visibility
130° at 5 knots Greater than 6 miles
Clouds
  • Scattered at 20,000' AGL